< Typhoon 199312 1993 Season Typhoon 199314 >
Typhoon 199313 (YANCY)
General InformationTrack Information on Google MapsDetailed Wind InformationList of All Images || NewsDisaster Info.ResourceGoogle EarthGE AnimationAtom FeedGeoJSON
Detalied Best Track (Time Zone = UTC)
Year Month Day Hour Lat. Long. Pressure (hPa) Wind (kt) Class Image Chart
1993 8 29 00 19.5 138.0 1004 0 2 Image Chart
1993 8 29 06 19.5 136.5 1004 0 2 Image Chart
1993 8 29 12 19.6 135.5 1002 0 2 Image Chart
1993 8 29 18 19.8 134.7 1000 0 2 Image Chart
1993 8 30 00 20.2 134.2 998 35 3 Image Chart
1993 8 30 06 20.6 133.5 998 35 3 Image Chart
1993 8 30 12 20.8 132.1 996 35 3 Image Chart
1993 8 30 18 20.8 130.5 994 35 3 Image Chart
1993 8 31 00 20.6 129.2 992 40 3 Image Chart
1993 8 31 06 20.6 128.2 990 45 3 Image Chart
1993 8 31 12 20.7 127.5 985 50 4 Image Chart
1993 8 31 18 21.3 126.7 980 55 4 Image Chart
1993 9 1 00 22.0 126.1 975 60 4 Image Chart
1993 9 1 03 22.4 125.8 965 70 5 Image Chart
1993 9 1 06 22.8 125.5 960 75 5 Image Chart
1993 9 1 09 23.1 125.4 955 75 5 Image Chart
1993 9 1 12 23.4 125.3 950 80 5 Image Chart
1993 9 1 15 23.7 125.3 945 80 5 Image Chart
1993 9 1 18 24.1 125.4 940 85 5 Image Chart
1993 9 1 21 24.5 125.5 940 85 5 Image Chart
1993 9 2 00 25.0 125.7 935 90 5 Image Chart
1993 9 2 03 25.5 126.0 935 90 5 Image Chart
1993 9 2 06 26.0 126.3 930 95 5 Image Chart
1993 9 2 09 26.5 126.7 925 95 5 Image Chart
1993 9 2 12 27.0 127.1 925 95 5 Image Chart
1993 9 2 15 27.5 127.5 925 95 5 Image Chart
1993 9 2 18 28.1 128.0 925 95 5 Image Chart
1993 9 2 21 28.7 128.5 925 95 5 Image Chart
1993 9 3 00 29.5 129.1 925 95 5 Image Chart
1993 9 3 03 30.2 129.7 925 95 5 Image Chart
1993 9 3 06 30.9 130.3 930 95 5 Image Chart
1993 9 3 09 31.9 131.1 940 85 5 Image Chart
1993 9 3 12 32.8 131.8 955 75 5 Image Chart
1993 9 3 14 33.3 132.3 965 65 5 Image Chart
1993 9 3 15 33.7 132.6 970 65 5 Image Chart
1993 9 3 16 34.1 132.9 970 65 5 Image Chart
1993 9 3 18 35.1 133.7 975 60 4 Image Chart
1993 9 3 21 36.4 134.9 980 55 4 Image Chart
1993 9 4 00 37.2 135.6 980 55 4 Image Chart
1993 9 4 03 38.2 136.2 980 55 4 Image Chart
1993 9 4 06 39.3 136.7 985 50 4 Image Chart
1993 9 4 09 40.2 137.0 985 50 4 Image Chart
1993 9 4 12 41.0 137.0 990 0 6 Image Chart
1993 9 4 18 41.5 137.0 994 0 6 Image Chart
1993 9 5 00 42.0 136.5 998 0 6 Image Chart
1993 9 5 06 42.0 136.0 1002 0 6 Image Chart
1993 9 5 12 41.5 135.5 1006 0 6 Image Chart
1993 9 5 18 41.0 135.5 1008 0 6 Image Chart
1993 9 6 00 40.5 135.5 1010 0 6 Image Chart
1993 9 6 06 40.0 135.5 1012 0 6 Image Chart
1993 9 6 12 40.0 135.5 1012 0 6 Image Chart
1993 9 6 18 40.0 135.0 1012 0 6 Image Chart
1993 9 7 00 40.0 135.0 1012 0 6 Image Chart
1993 9 7 06 40.0 134.5 1012 0 6 Image Chart
1993 9 7 12 39.5 134.0 1012 0 6 Image Chart
Japan Meteorological Agency Best Track Data | Correction Date : 1994-01-10
< Typhoon 199312 1993 Season Typhoon 199314 >

Help